sensor_id;sensor_type;location;lat;lon;timestamp;pressure;altitude;pressure_sealevel;temperature;humidity
73341;BME280;61578;52.002;5.468;2022-08-19T00:00:08;101333.09;;;17.85;86.93
73341;BME280;61578;52.002;5.468;2022-08-19T00:00:40;101325.16;;;17.84;87.48
73341;BME280;61578;52.002;5.468;2022-08-19T00:01:11;101329.69;;;17.83;87.65
73341;BME280;61578;52.002;5.468;2022-08-19T00:01:45;101331.41;;;17.84;87.31
73341;BME280;61578;52.002;5.468;2022-08-19T00:02:17;101324.59;;;17.80;86.82
73341;BME280;61578;52.002;5.468;2022-08-19T00:02:48;101335.06;;;17.83;86.40
73341;BME280;61578;52.002;5.468;2022-08-19T00:03:19;101336.19;;;17.81;87.00
73341;BME280;61578;52.002;5.468;2022-08-19T00:03:50;101325.72;;;17.78;87.30
73341;BME280;61578;52.002;5.468;2022-08-19T00:04:25;101326.44;;;17.80;87.64
73341;BME280;61578;52.002;5.468;2022-08-19T00:04:58;101322.91;;;17.79;87.61
73341;BME280;61578;52.002;5.468;2022-08-19T00:05:30;101308.16;;;17.74;87.40
73341;BME280;61578;52.002;5.468;2022-08-19T00:06:01;101315.34;;;17.73;87.31
73341;BME280;61578;52.002;5.468;2022-08-19T00:06:34;101307.59;;;17.70;87.13
73341;BME280;61578;52.002;5.468;2022-08-19T00:07:07;101328.28;;;17.79;87.17
73341;BME280;61578;52.002;5.468;2022-08-19T00:07:38;101312.66;;;17.73;87.52
73341;BME280;61578;52.002;5.468;2022-08-19T00:08:08;101326.56;;;17.78;87.53
73341;BME280;61578;52.002;5.468;2022-08-19T00:08:39;101323.16;;;17.76;87.91
73341;BME280;61578;52.002;5.468;2022-08-19T00:09:13;101319.50;;;17.77;87.76
73341;BME280;61578;52.002;5.468;2022-08-19T00:09:46;101293.34;;;17.58;87.40
73341;BME280;61578;52.002;5.468;2022-08-19T00:10:18;101324.25;;;17.74;86.84
73341;BME280;61578;52.002;5.468;2022-08-19T00:10:50;101301.03;;;17.63;87.09
73341;BME280;61578;52.002;5.468;2022-08-19T00:11:23;101309.81;;;17.65;87.48
73341;BME280;61578;52.002;5.468;2022-08-19T00:11:57;101332.78;;;17.79;87.50
73341;BME280;61578;52.002;5.468;2022-08-19T00:12:29;101328.41;;;17.78;87.47
73341;BME280;61578;52.002;5.468;2022-08-19T00:12:59;101326.81;;;17.75;87.06
73341;BME280;61578;52.002;5.468;2022-08-19T00:13:30;101323.28;;;17.75;87.14
73341;BME280;61578;52.002;5.468;2022-08-19T00:14:01;101330.34;;;17.76;87.80
73341;BME280;61578;52.002;5.468;2022-08-19T00:14:33;101333.91;;;17.76;86.98
73341;BME280;61578;52.002;5.468;2022-08-19T00:15:08;101317.97;;;17.63;87.22
73341;BME280;61578;52.002;5.468;2022-08-19T00:15:41;101334.88;;;17.75;87.21
73341;BME280;61578;52.002;5.468;2022-08-19T00:16:15;101330.75;;;17.71;87.08
73341;BME280;61578;52.002;5.468;2022-08-19T00:16:50;101331.22;;;17.76;87.28
73341;BME280;61578;52.002;5.468;2022-08-19T00:17:24;101334.88;;;17.75;87.32
73341;BME280;61578;52.002;5.468;2022-08-19T00:17:55;101315.16;;;17.65;87.32
73341;BME280;61578;52.002;5.468;2022-08-19T00:18:26;101337.56;;;17.75;87.32
73341;BME280;61578;52.002;5.468;2022-08-19T00:18:56;101324.38;;;17.72;87.06
73341;BME280;61578;52.002;5.468;2022-08-19T00:19:27;101310.91;;;17.62;87.39
73341;BME280;61578;52.002;5.468;2022-08-19T00:19:58;101336.66;;;17.65;87.47
73341;BME280;61578;52.002;5.468;2022-08-19T00:20:29;101336.97;;;17.72;87.48
73341;BME280;61578;52.002;5.468;2022-08-19T00:21:00;101335.13;;;17.72;87.13
73341;BME280;61578;52.002;5.468;2022-08-19T00:21:31;101332.00;;;17.67;87.07
73341;BME280;61578;52.002;5.468;2022-08-19T00:22:02;101335.28;;;17.71;87.02
73341;BME280;61578;52.002;5.468;2022-08-19T00:22:34;101332.59;;;17.71;87.20
73341;BME280;61578;52.002;5.468;2022-08-19T00:23:04;101313.84;;;17.59;87.27
73341;BME280;61578;52.002;5.468;2022-08-19T00:23:36;101337.13;;;17.70;87.51
73341;BME280;61578;52.002;5.468;2022-08-19T00:24:08;101305.44;;;17.53;87.36
73341;BME280;61578;52.002;5.468;2022-08-19T00:24:41;101327.88;;;17.63;87.75
73341;BME280;61578;52.002;5.468;2022-08-19T00:25:14;101321.19;;;17.57;87.66
73341;BME280;61578;52.002;5.468;2022-08-19T00:25:46;101325.19;;;17.63;87.49
73341;BME280;61578;52.002;5.468;2022-08-19T00:26:16;101313.50;;;17.53;87.58
73341;BME280;61578;52.002;5.468;2022-08-19T00:26:47;101323.13;;;17.55;87.21
73341;BME280;61578;52.002;5.468;2022-08-19T00:27:17;101338.22;;;17.68;87.09
73341;BME280;61578;52.002;5.468;2022-08-19T00:27:48;101331.88;;;17.69;87.63
73341;BME280;61578;52.002;5.468;2022-08-19T00:28:20;101335.94;;;17.63;87.78
73341;BME280;61578;52.002;5.468;2022-08-19T00:28:51;101340.06;;;17.67;87.54
73341;BME280;61578;52.002;5.468;2022-08-19T00:29:23;101300.13;;;17.42;86.82
73341;BME280;61578;52.002;5.468;2022-08-19T00:29:55;101332.56;;;17.50;87.30
73341;BME280;61578;52.002;5.468;2022-08-19T00:30:26;101333.16;;;17.53;87.70
73341;BME280;61578;52.002;5.468;2022-08-19T00:31:00;101339.47;;;17.63;87.94
73341;BME280;61578;52.002;5.468;2022-08-19T00:31:32;101281.41;;;17.30;88.34
73341;BME280;61578;52.002;5.468;2022-08-19T00:32:03;101328.38;;;17.57;87.85
73341;BME280;61578;52.002;5.468;2022-08-19T00:32:34;101352.91;;;17.63;87.32
73341;BME280;61578;52.002;5.468;2022-08-19T00:33:05;101340.44;;;17.62;87.12
73341;BME280;61578;52.002;5.468;2022-08-19T00:33:36;101337.84;;;17.61;87.12
73341;BME280;61578;52.002;5.468;2022-08-19T00:34:07;101255.34;;;17.01;87.06
73341;BME280;61578;52.002;5.468;2022-08-19T00:34:38;101338.00;;;17.59;87.58
73341;BME280;61578;52.002;5.468;2022-08-19T00:35:09;101331.44;;;17.52;87.62
73341;BME280;61578;52.002;5.468;2022-08-19T00:35:39;101320.84;;;17.51;87.59
73341;BME280;61578;52.002;5.468;2022-08-19T00:36:11;101339.13;;;17.57;87.17
73341;BME280;61578;52.002;5.468;2022-08-19T00:36:42;101339.13;;;17.57;87.65
73341;BME280;61578;52.002;5.468;2022-08-19T00:37:15;101300.44;;;17.39;87.52
73341;BME280;61578;52.002;5.468;2022-08-19T00:37:47;101294.34;;;17.37;87.37
73341;BME280;61578;52.002;5.468;2022-08-19T00:38:19;101324.13;;;17.54;86.88
73341;BME280;61578;52.002;5.468;2022-08-19T00:38:52;101330.88;;;17.49;87.00
73341;BME280;61578;52.002;5.468;2022-08-19T00:39:23;101335.09;;;17.51;87.44
73341;BME280;61578;52.002;5.468;2022-08-19T00:39:54;101317.22;;;17.41;87.55
73341;BME280;61578;52.002;5.468;2022-08-19T00:40:26;101329.28;;;17.46;87.47
73341;BME280;61578;52.002;5.468;2022-08-19T00:40:56;101324.78;;;17.47;87.46
73341;BME280;61578;52.002;5.468;2022-08-19T00:41:28;101292.03;;;17.32;87.77
73341;BME280;61578;52.002;5.468;2022-08-19T00:41:59;101324.78;;;17.47;87.81
73341;BME280;61578;52.002;5.468;2022-08-19T00:42:30;101317.22;;;17.41;87.91
73341;BME280;61578;52.002;5.468;2022-08-19T00:43:01;101308.13;;;17.32;87.83
73341;BME280;61578;52.002;5.468;2022-08-19T00:43:38;101306.41;;;17.31;87.67
73341;BME280;61578;52.002;5.468;2022-08-19T00:44:17;101327.16;;;17.40;87.93
73341;BME280;61578;52.002;5.468;2022-08-19T00:44:53;101332.34;;;17.42;87.94
73341;BME280;61578;52.002;5.468;2022-08-19T00:45:29;101328.69;;;17.43;87.79
73341;BME280;61578;52.002;5.468;2022-08-19T00:46:06;101312.50;;;17.33;88.13
73341;BME280;61578;52.002;5.468;2022-08-19T00:46:41;101313.50;;;17.32;87.75
73341;BME280;61578;52.002;5.468;2022-08-19T00:47:14;101332.63;;;17.39;87.44
73341;BME280;61578;52.002;5.468;2022-08-19T00:47:46;101300.66;;;17.15;87.48
73341;BME280;61578;52.002;5.468;2022-08-19T00:48:18;101343.25;;;17.40;87.80
73341;BME280;61578;52.002;5.468;2022-08-19T00:48:49;101339.72;;;17.40;87.45
73341;BME280;61578;52.002;5.468;2022-08-19T00:49:31;101299.69;;;17.16;87.94
73341;BME280;61578;52.002;5.468;2022-08-19T00:50:08;101336.69;;;17.33;88.10
73341;BME280;61578;52.002;5.468;2022-08-19T00:50:42;101339.09;;;17.36;87.95
73341;BME280;61578;52.002;5.468;2022-08-19T00:51:14;101339.22;;;17.35;87.83
73341;BME280;61578;52.002;5.468;2022-08-19T00:51:50;101314.81;;;17.17;88.16
73341;BME280;61578;52.002;5.468;2022-08-19T00:52:30;101345.69;;;17.32;87.81
73341;BME280;61578;52.002;5.468;2022-08-19T00:53:06;101332.81;;;17.26;87.55
73341;BME280;61578;52.002;5.468;2022-08-19T00:53:37;101313.09;;;17.16;87.38
73341;BME280;61578;52.002;5.468;2022-08-19T00:54:10;101345.00;;;17.30;87.36
73341;BME280;61578;52.002;5.468;2022-08-19T00:54:43;101333.19;;;17.21;87.16
73341;BME280;61578;52.002;5.468;2022-08-19T00:55:21;101333.66;;;17.26;87.61
73341;BME280;61578;52.002;5.468;2022-08-19T00:55:58;101337.22;;;17.27;87.47
73341;BME280;61578;52.002;5.468;2022-08-19T00:56:31;101296.84;;;16.97;87.49
73341;BME280;61578;52.002;5.468;2022-08-19T00:57:06;101335.50;;;17.26;87.34
73341;BME280;61578;52.002;5.468;2022-08-19T00:57:46;101335.19;;;17.19;87.54
73341;BME280;61578;52.002;5.468;2022-08-19T00:58:26;101337.44;;;17.24;87.80
73341;BME280;61578;52.002;5.468;2022-08-19T00:59:02;101327.38;;;17.16;87.70
73341;BME280;61578;52.002;5.468;2022-08-19T00:59:42;101341.25;;;17.21;87.66
73341;BME280;61578;52.002;5.468;2022-08-19T01:00:19;101332.34;;;17.21;88.01
73341;BME280;61578;52.002;5.468;2022-08-19T01:00:53;101341.41;;;17.20;87.99
73341;BME280;61578;52.002;5.468;2022-08-19T01:01:24;101327.88;;;17.10;87.83
73341;BME280;61578;52.002;5.468;2022-08-19T01:01:56;101319.13;;;17.08;87.71
73341;BME280;61578;52.002;5.468;2022-08-19T01:02:27;101337.13;;;17.17;87.92
73341;BME280;61578;52.002;5.468;2022-08-19T01:02:59;101324.19;;;17.11;87.56
73341;BME280;61578;52.002;5.468;2022-08-19T01:03:30;101342.50;;;17.17;87.70
73341;BME280;61578;52.002;5.468;2022-08-19T01:04:01;101323.97;;;17.14;87.48
73341;BME280;61578;52.002;5.468;2022-08-19T01:04:31;101307.19;;;17.01;87.66
73341;BME280;61578;52.002;5.468;2022-08-19T01:05:07;101249.03;;;16.70;88.00
73341;BME280;61578;52.002;5.468;2022-08-19T01:05:43;101328.09;;;17.18;87.41
73341;BME280;61578;52.002;5.468;2022-08-19T01:06:15;101315.72;;;17.06;87.40
73341;BME280;61578;52.002;5.468;2022-08-19T01:06:46;101331.88;;;17.16;87.68
73341;BME280;61578;52.002;5.468;2022-08-19T01:07:18;101323.97;;;17.14;87.72
73341;BME280;61578;52.002;5.468;2022-08-19T01:07:49;101296.97;;;16.95;87.78
73341;BME280;61578;52.002;5.468;2022-08-19T01:08:22;101298.91;;;16.93;87.88
73341;BME280;61578;52.002;5.468;2022-08-19T01:08:54;101308.03;;;17.02;88.29
73341;BME280;61578;52.002;5.468;2022-08-19T01:09:25;101328.72;;;17.11;87.84
73341;BME280;61578;52.002;5.468;2022-08-19T01:09:56;101331.56;;;17.09;87.94
73341;BME280;61578;52.002;5.468;2022-08-19T01:10:32;101327.16;;;17.08;88.05
73341;BME280;61578;52.002;5.468;2022-08-19T01:11:07;101336.19;;;17.07;88.35
73341;BME280;61578;52.002;5.468;2022-08-19T01:11:41;101295.78;;;16.88;87.78
73341;BME280;61578;52.002;5.468;2022-08-19T01:12:15;101323.28;;;17.01;88.11
73341;BME280;61578;52.002;5.468;2022-08-19T01:12:49;101323.75;;;17.06;88.00
73341;BME280;61578;52.002;5.468;2022-08-19T01:13:25;101325.59;;;17.06;87.54
73341;BME280;61578;52.002;5.468;2022-08-19T01:13:58;101303.84;;;16.88;87.79
73341;BME280;61578;52.002;5.468;2022-08-19T01:14:30;101326.00;;;16.90;87.51
73341;BME280;61578;52.002;5.468;2022-08-19T01:15:03;101334.72;;;17.03;87.59
73341;BME280;61578;52.002;5.468;2022-08-19T01:15:45;101275.84;;;16.70;87.86
73341;BME280;61578;52.002;5.468;2022-08-19T01:16:25;101316.72;;;16.94;87.83
73341;BME280;61578;52.002;5.468;2022-08-19T01:17:00;101312.56;;;16.90;88.13
73341;BME280;61578;52.002;5.468;2022-08-19T01:17:32;101329.16;;;16.95;87.64
73341;BME280;61578;52.002;5.468;2022-08-19T01:18:11;101323.19;;;16.91;87.72
73341;BME280;61578;52.002;5.468;2022-08-19T01:18:44;101315.91;;;16.82;87.78
73341;BME280;61578;52.002;5.468;2022-08-19T01:19:29;101325.75;;;16.93;88.17
73341;BME280;61578;52.002;5.468;2022-08-19T01:20:04;101337.22;;;16.95;88.05
73341;BME280;61578;52.002;5.468;2022-08-19T01:20:39;101333.66;;;16.95;88.00
73341;BME280;61578;52.002;5.468;2022-08-19T01:21:28;101334.66;;;16.93;88.22
73341;BME280;61578;52.002;5.468;2022-08-19T01:22:34;101331.00;;;16.95;87.70
73341;BME280;61578;52.002;5.468;2022-08-19T01:23:22;101300.44;;;16.75;87.98
73341;BME280;61578;52.002;5.468;2022-08-19T01:24:12;101329.41;;;16.92;88.05
73341;BME280;61578;52.002;5.468;2022-08-19T01:24:43;101331.97;;;16.93;88.39
73341;BME280;61578;52.002;5.468;2022-08-19T01:25:17;101322.00;;;16.84;88.38
73341;BME280;61578;52.002;5.468;2022-08-19T01:25:52;101303.38;;;16.72;87.94
73341;BME280;61578;52.002;5.468;2022-08-19T01:26:25;101299.25;;;16.68;88.06
73341;BME280;61578;52.002;5.468;2022-08-19T01:26:58;101333.06;;;16.91;87.98
73341;BME280;61578;52.002;5.468;2022-08-19T01:27:38;101336.72;;;16.90;87.80
73341;BME280;61578;52.002;5.468;2022-08-19T01:28:23;101323.50;;;16.77;87.96
73341;BME280;61578;52.002;5.468;2022-08-19T01:28:58;101295.44;;;16.59;87.44
73341;BME280;61578;52.002;5.468;2022-08-19T01:29:31;101283.41;;;16.53;87.75
73341;BME280;61578;52.002;5.468;2022-08-19T01:30:04;101339.91;;;16.84;87.75
73341;BME280;61578;52.002;5.468;2022-08-19T01:30:35;101321.78;;;16.76;87.80
73341;BME280;61578;52.002;5.468;2022-08-19T01:31:09;101336.16;;;16.75;87.79
73341;BME280;61578;52.002;5.468;2022-08-19T01:31:43;101341.75;;;16.83;88.10
73341;BME280;61578;52.002;5.468;2022-08-19T01:32:16;101293.16;;;16.54;87.85
73341;BME280;61578;52.002;5.468;2022-08-19T01:32:47;101286.59;;;16.47;88.04
73341;BME280;61578;52.002;5.468;2022-08-19T01:33:20;101336.63;;;16.80;88.06
73341;BME280;61578;52.002;5.468;2022-08-19T01:33:54;101349.19;;;16.80;88.16
73341;BME280;61578;52.002;5.468;2022-08-19T01:34:27;101333.59;;;16.74;88.33
73341;BME280;61578;52.002;5.468;2022-08-19T01:34:57;101345.91;;;16.76;88.24
73341;BME280;61578;52.002;5.468;2022-08-19T01:35:30;101338.72;;;16.77;88.22
73341;BME280;61578;52.002;5.468;2022-08-19T01:36:11;101336.91;;;16.77;87.90
73341;BME280;61578;52.002;5.468;2022-08-19T01:36:46;101346.91;;;16.75;87.73
73341;BME280;61578;52.002;5.468;2022-08-19T01:37:17;101330.31;;;16.70;88.09
73341;BME280;61578;52.002;5.468;2022-08-19T01:37:52;101340.69;;;16.75;87.60
73341;BME280;61578;52.002;5.468;2022-08-19T01:38:28;101332.88;;;16.72;88.34
73341;BME280;61578;52.002;5.468;2022-08-19T01:39:05;101336.91;;;16.77;88.30
73341;BME280;61578;52.002;5.468;2022-08-19T01:39:39;101340.56;;;16.76;88.38
73341;BME280;61578;52.002;5.468;2022-08-19T01:40:11;101314.88;;;16.63;87.82
73341;BME280;61578;52.002;5.468;2022-08-19T01:40:42;101327.50;;;16.72;87.87
73341;BME280;61578;52.002;5.468;2022-08-19T01:41:13;101342.38;;;16.76;87.68
73341;BME280;61578;52.002;5.468;2022-08-19T01:41:45;101345.06;;;16.76;87.85
73341;BME280;61578;52.002;5.468;2022-08-19T01:42:17;101334.34;;;16.76;88.10
73341;BME280;61578;52.002;5.468;2022-08-19T01:42:49;101338.00;;;16.75;87.96
73341;BME280;61578;52.002;5.468;2022-08-19T01:43:20;101338.84;;;16.75;87.64
73341;BME280;61578;52.002;5.468;2022-08-19T01:43:52;101340.69;;;16.75;87.76
73341;BME280;61578;52.002;5.468;2022-08-19T01:44:23;101338.97;;;16.74;87.67
73341;BME280;61578;52.002;5.468;2022-08-19T01:44:54;101331.78;;;16.74;87.89
73341;BME280;61578;52.002;5.468;2022-08-19T01:45:27;101343.38;;;16.75;87.98
73341;BME280;61578;52.002;5.468;2022-08-19T01:46:00;101304.00;;;16.53;88.01
73341;BME280;61578;52.002;5.468;2022-08-19T01:46:31;101329.34;;;16.71;88.02
73341;BME280;61578;52.002;5.468;2022-08-19T01:47:03;101232.84;;;16.06;88.02
73341;BME280;61578;52.002;5.468;2022-08-19T01:47:35;101311.69;;;16.58;88.33
73341;BME280;61578;52.002;5.468;2022-08-19T01:48:07;101329.47;;;16.70;88.20
73341;BME280;61578;52.002;5.468;2022-08-19T01:48:41;101333.00;;;16.70;88.13
73341;BME280;61578;52.002;5.468;2022-08-19T01:49:13;101307.31;;;16.56;88.20
73341;BME280;61578;52.002;5.468;2022-08-19T01:49:44;101326.94;;;16.68;88.52
73341;BME280;61578;52.002;5.468;2022-08-19T01:50:15;101305.84;;;16.52;88.87
73341;BME280;61578;52.002;5.468;2022-08-19T01:50:46;101325.09;;;16.69;87.94
73341;BME280;61578;52.002;5.468;2022-08-19T01:51:17;101320.72;;;16.68;88.53
73341;BME280;61578;52.002;5.468;2022-08-19T01:51:49;101327.41;;;16.62;88.14
73341;BME280;61578;52.002;5.468;2022-08-19T01:52:20;101339.59;;;16.66;88.13
73341;BME280;61578;52.002;5.468;2022-08-19T01:52:52;101335.22;;;16.65;88.43
73341;BME280;61578;52.002;5.468;2022-08-19T01:53:22;101299.28;;;16.45;88.29
73341;BME280;61578;52.002;5.468;2022-08-19T01:53:54;101341.56;;;16.64;88.51
73341;BME280;61578;52.002;5.468;2022-08-19T01:54:25;101317.28;;;16.54;88.49
73341;BME280;61578;52.002;5.468;2022-08-19T01:54:55;101319.25;;;16.52;88.47
73341;BME280;61578;52.002;5.468;2022-08-19T01:55:26;101336.31;;;16.63;88.47
73341;BME280;61578;52.002;5.468;2022-08-19T01:55:57;101325.78;;;16.60;88.68
73341;BME280;61578;52.002;5.468;2022-08-19T01:56:28;101339.00;;;16.63;88.23
73341;BME280;61578;52.002;5.468;2022-08-19T01:57:04;101339.09;;;16.61;88.38
73341;BME280;61578;52.002;5.468;2022-08-19T01:57:41;101341.88;;;16.60;88.72
73341;BME280;61578;52.002;5.468;2022-08-19T01:58:20;101332.28;;;16.57;88.43
73341;BME280;61578;52.002;5.468;2022-08-19T01:59:07;101344.84;;;16.56;88.45
73341;BME280;61578;52.002;5.468;2022-08-19T01:59:44;101331.91;;;16.50;88.38
73341;BME280;61578;52.002;5.468;2022-08-19T02:00:19;101301.13;;;16.34;88.41
73341;BME280;61578;52.002;5.468;2022-08-19T02:00:51;101334.00;;;16.47;88.25
73341;BME280;61578;52.002;5.468;2022-08-19T02:01:22;101317.44;;;16.42;88.50
73341;BME280;61578;52.002;5.468;2022-08-19T02:01:52;101298.69;;;16.31;88.29
73341;BME280;61578;52.002;5.468;2022-08-19T02:02:23;101315.59;;;16.42;88.17
73341;BME280;61578;52.002;5.468;2022-08-19T02:02:54;101331.66;;;16.53;87.94
73341;BME280;61578;52.002;5.468;2022-08-19T02:03:25;101278.00;;;16.10;88.09
73341;BME280;61578;52.002;5.468;2022-08-19T02:03:55;101333.50;;;16.53;87.84
73341;BME280;61578;52.002;5.468;2022-08-19T02:04:26;101323.28;;;16.47;88.24
73341;BME280;61578;52.002;5.468;2022-08-19T02:04:57;101332.63;;;16.52;88.04
73341;BME280;61578;52.002;5.468;2022-08-19T02:05:29;101324.13;;;16.47;88.19
73341;BME280;61578;52.002;5.468;2022-08-19T02:06:01;101326.53;;;16.50;88.48
73341;BME280;61578;52.002;5.468;2022-08-19T02:06:33;101314.97;;;16.39;88.26
73341;BME280;61578;52.002;5.468;2022-08-19T02:07:05;101335.56;;;16.49;88.63
73341;BME280;61578;52.002;5.468;2022-08-19T02:07:39;101300.03;;;16.25;88.46
73341;BME280;61578;52.002;5.468;2022-08-19T02:08:11;101334.72;;;16.49;88.51
73341;BME280;61578;52.002;5.468;2022-08-19T02:08:43;101291.25;;;16.23;88.33
73341;BME280;61578;52.002;5.468;2022-08-19T02:09:16;101338.41;;;16.48;88.22
73341;BME280;61578;52.002;5.468;2022-08-19T02:09:47;101329.00;;;16.42;88.04
73341;BME280;61578;52.002;5.468;2022-08-19T02:10:21;101334.00;;;16.47;88.13
73341;BME280;61578;52.002;5.468;2022-08-19T02:10:52;101333.88;;;16.48;88.19
73341;BME280;61578;52.002;5.468;2022-08-19T02:11:27;101334.00;;;16.47;87.99
73341;BME280;61578;52.002;5.468;2022-08-19T02:12:02;101334.84;;;16.47;87.88
73341;BME280;61578;52.002;5.468;2022-08-19T02:12:33;101311.22;;;16.30;88.00
73341;BME280;61578;52.002;5.468;2022-08-19T02:13:05;101328.75;;;16.45;88.10
73341;BME280;61578;52.002;5.468;2022-08-19T02:13:36;101323.88;;;16.39;88.30
73341;BME280;61578;52.002;5.468;2022-08-19T02:14:07;101288.81;;;16.20;88.37
73341;BME280;61578;52.002;5.468;2022-08-19T02:14:38;101322.31;;;16.37;88.65
73341;BME280;61578;52.002;5.468;2022-08-19T02:15:09;101313.19;;;16.28;87.91
73341;BME280;61578;52.002;5.468;2022-08-19T02:15:40;101329.84;;;16.43;88.00
73341;BME280;61578;52.002;5.468;2022-08-19T02:16:10;101316.59;;;16.30;88.35
73341;BME280;61578;52.002;5.468;2022-08-19T02:16:41;101334.38;;;16.42;88.17
73341;BME280;61578;52.002;5.468;2022-08-19T02:17:12;101334.38;;;16.42;88.43
73341;BME280;61578;52.002;5.468;2022-08-19T02:17:43;101335.34;;;16.41;88.15
73341;BME280;61578;52.002;5.468;2022-08-19T02:18:13;101334.47;;;16.41;88.13
73341;BME280;61578;52.002;5.468;2022-08-19T02:18:46;101315.16;;;16.26;88.14
73341;BME280;61578;52.002;5.468;2022-08-19T02:19:18;101337.28;;;16.39;88.53
73341;BME280;61578;52.002;5.468;2022-08-19T02:19:50;101333.28;;;16.34;88.48
73341;BME280;61578;52.002;5.468;2022-08-19T02:20:21;101306.72;;;16.19;88.27
73341;BME280;61578;52.002;5.468;2022-08-19T02:20:52;101338.28;;;16.38;88.17
73341;BME280;61578;52.002;5.468;2022-08-19T02:21:23;101349.81;;;16.39;87.80
73341;BME280;61578;52.002;5.468;2022-08-19T02:21:54;101342.78;;;16.38;88.11
73341;BME280;61578;52.002;5.468;2022-08-19T02:22:25;101346.31;;;16.38;87.89
73341;BME280;61578;52.002;5.468;2022-08-19T02:22:56;101343.66;;;16.38;87.91
73341;BME280;61578;52.002;5.468;2022-08-19T02:23:27;101342.91;;;16.36;87.79
73341;BME280;61578;52.002;5.468;2022-08-19T02:23:58;101320.84;;;16.22;88.11
73341;BME280;61578;52.002;5.468;2022-08-19T02:24:29;101347.28;;;16.37;88.30
73341;BME280;61578;52.002;5.468;2022-08-19T02:24:59;101347.28;;;16.37;88.00
73341;BME280;61578;52.002;5.468;2022-08-19T02:25:30;101344.13;;;16.32;88.10
73341;BME280;61578;52.002;5.468;2022-08-19T02:26:01;101343.88;;;16.35;88.40
73341;BME280;61578;52.002;5.468;2022-08-19T02:26:32;101342.69;;;16.28;88.45
73341;BME280;61578;52.002;5.468;2022-08-19T02:27:03;101347.53;;;16.34;88.24
73341;BME280;61578;52.002;5.468;2022-08-19T02:27:35;101335.59;;;16.27;88.37
73341;BME280;61578;52.002;5.468;2022-08-19T02:28:05;101339.72;;;16.31;88.35
73341;BME280;61578;52.002;5.468;2022-08-19T02:28:37;101339.16;;;16.28;88.78
73341;BME280;61578;52.002;5.468;2022-08-19T02:29:07;101345.81;;;16.33;88.46
73341;BME280;61578;52.002;5.468;2022-08-19T02:29:38;101322.09;;;16.17;88.49
73341;BME280;61578;52.002;5.468;2022-08-19T02:30:13;101345.81;;;16.33;88.77
73341;BME280;61578;52.002;5.468;2022-08-19T02:30:47;101345.34;;;16.28;88.50
73341;BME280;61578;52.002;5.468;2022-08-19T02:31:20;101348.38;;;16.35;88.46
73341;BME280;61578;52.002;5.468;2022-08-19T02:31:53;101348.28;;;16.36;88.54
73341;BME280;61578;52.002;5.468;2022-08-19T02:32:24;101265.00;;;15.83;88.21
73341;BME280;61578;52.002;5.468;2022-08-19T02:32:54;101316.84;;;16.16;88.02
73341;BME280;61578;52.002;5.468;2022-08-19T02:33:25;101356.31;;;16.36;88.15
73341;BME280;61578;52.002;5.468;2022-08-19T02:33:56;101355.47;;;16.36;88.17
73341;BME280;61578;52.002;5.468;2022-08-19T02:34:27;101336.94;;;16.22;88.61
73341;BME280;61578;52.002;5.468;2022-08-19T02:34:58;101359.97;;;16.35;88.37
73341;BME280;61578;52.002;5.468;2022-08-19T02:35:29;101347.88;;;16.30;88.76
73341;BME280;61578;52.002;5.468;2022-08-19T02:35:59;101323.78;;;16.18;88.63
73341;BME280;61578;52.002;5.468;2022-08-19T02:36:34;101360.81;;;16.36;88.35
73341;BME280;61578;52.002;5.468;2022-08-19T02:37:04;101356.31;;;16.36;88.49
73341;BME280;61578;52.002;5.468;2022-08-19T02:37:35;101363.50;;;16.36;88.26
73341;BME280;61578;52.002;5.468;2022-08-19T02:38:24;101354.72;;;16.34;88.14
73341;BME280;61578;52.002;5.468;2022-08-19T02:38:58;101329.28;;;16.17;88.09
73341;BME280;61578;52.002;5.468;2022-08-19T02:39:29;101355.56;;;16.34;88.28
73341;BME280;61578;52.002;5.468;2022-08-19T02:39:59;101332.66;;;16.19;88.11
73341;BME280;61578;52.002;5.468;2022-08-19T02:40:31;101359.34;;;16.32;88.10
73341;BME280;61578;52.002;5.468;2022-08-19T02:41:16;101353.13;;;16.31;88.15
73341;BME280;61578;52.002;5.468;2022-08-19T02:41:49;101358.50;;;16.31;88.40
73341;BME280;61578;52.002;5.468;2022-08-19T02:42:20;101362.13;;;16.30;88.34
73341;BME280;61578;52.002;5.468;2022-08-19T02:42:51;101325.47;;;16.08;88.33
73341;BME280;61578;52.002;5.468;2022-08-19T02:43:23;101351.41;;;16.30;88.00
73341;BME280;61578;52.002;5.468;2022-08-19T02:43:56;101337.06;;;16.20;88.18
73341;BME280;61578;52.002;5.468;2022-08-19T02:44:28;101321.59;;;16.12;88.41
73341;BME280;61578;52.002;5.468;2022-08-19T02:44:59;101342.19;;;16.23;88.97
73341;BME280;61578;52.002;5.468;2022-08-19T02:45:34;101315.38;;;16.12;88.41
73341;BME280;61578;52.002;5.468;2022-08-19T02:46:19;101347.78;;;16.31;88.50
73341;BME280;61578;52.002;5.468;2022-08-19T02:46:53;101352.16;;;16.32;88.91
73341;BME280;61578;52.002;5.468;2022-08-19T02:47:23;101344.97;;;16.33;88.78
73341;BME280;61578;52.002;5.468;2022-08-19T02:47:54;101334.13;;;16.23;89.21
73341;BME280;61578;52.002;5.468;2022-08-19T02:48:27;101338.13;;;16.29;89.33
73341;BME280;61578;52.002;5.468;2022-08-19T02:49:01;101351.91;;;16.35;88.96
73341;BME280;61578;52.002;5.468;2022-08-19T02:49:33;101330.50;;;16.24;89.56
73341;BME280;61578;52.002;5.468;2022-08-19T02:50:06;101345.47;;;16.38;89.03
73341;BME280;61578;52.002;5.468;2022-08-19T02:50:38;101349.97;;;16.37;88.80
73341;BME280;61578;52.002;5.468;2022-08-19T02:51:17;101242.84;;;15.70;88.62
73341;BME280;61578;52.002;5.468;2022-08-19T02:51:49;101313.22;;;16.17;88.63
73341;BME280;61578;52.002;5.468;2022-08-19T02:52:20;101342.16;;;16.34;88.68
73341;BME280;61578;52.002;5.468;2022-08-19T02:52:53;101348.84;;;16.29;88.08